createdAt,value
2022-09-09T00:02:03.585Z,2.17
2022-09-09T00:04:32.383Z,1.80
2022-09-09T00:07:06.179Z,2.30
2022-09-09T00:09:41.206Z,2.80
2022-09-09T00:12:13.482Z,2.08
2022-09-09T00:20:15.290Z,1.80
2022-09-09T00:22:47.433Z,2.13
2022-09-09T00:25:23.559Z,2.28
2022-09-09T00:27:52.359Z,2.10
2022-09-09T00:33:02.247Z,1.98
2022-09-09T00:35:38.557Z,1.90
2022-09-09T00:38:16.676Z,2.65
2022-09-09T00:40:51.969Z,2.30
2022-09-09T00:43:19.453Z,2.38
2022-09-09T00:46:05.668Z,1.67
2022-09-09T00:48:39.275Z,1.98
2022-09-09T00:51:12.547Z,2.05
2022-09-09T00:54:08.473Z,2.25
2022-09-09T00:56:46.824Z,2.72
2022-09-09T00:59:25.497Z,2.10
2022-09-09T01:01:58.545Z,2.50
2022-09-09T01:04:32.862Z,2.40
2022-09-09T01:07:06.208Z,3.28
2022-09-09T01:09:33.706Z,2.38
2022-09-09T01:12:04.431Z,2.10
2022-09-09T01:14:39.936Z,2.08
2022-09-09T01:17:12.728Z,2.25
2022-09-09T01:19:58.783Z,2.00
2022-09-09T01:22:38.224Z,2.10
2022-09-09T01:25:17.530Z,3.08
2022-09-09T01:27:45.666Z,2.70
2022-09-09T01:30:17.830Z,3.03
2022-09-09T01:32:51.252Z,2.38
2022-09-09T01:35:21.858Z,4.45
2022-09-09T01:37:49.367Z,2.58
2022-09-09T01:40:17.000Z,2.83
2022-09-09T01:42:44.677Z,2.45
2022-09-09T01:45:12.199Z,2.72
2022-09-09T01:47:39.803Z,2.22
2022-09-09T01:50:09.538Z,2.28
2022-09-09T01:52:38.039Z,2.53
2022-09-09T01:55:08.952Z,2.50
2022-09-09T01:57:41.515Z,3.17
2022-09-09T02:03:16.525Z,2.78
2022-09-09T02:05:50.248Z,2.30
2022-09-09T02:08:22.114Z,2.80
2022-09-09T02:10:49.638Z,2.60
2022-09-09T02:13:19.384Z,2.75
2022-09-09T02:15:59.114Z,2.95
2022-09-09T02:18:29.385Z,3.50
2022-09-09T02:20:58.110Z,2.85
2022-09-09T02:23:25.874Z,2.67
2022-09-09T02:25:54.582Z,2.28
2022-09-09T02:28:25.789Z,2.70
2022-09-09T02:30:56.806Z,2.65
2022-09-09T02:33:26.633Z,2.22
2022-09-09T02:35:54.615Z,2.70
2022-09-09T02:38:23.908Z,3.08
2022-09-09T02:40:51.424Z,3.47
2022-09-09T02:43:18.944Z,2.75
2022-09-09T02:45:51.385Z,2.88
2022-09-09T02:48:45.577Z,3.17
2022-09-09T02:51:21.729Z,2.92
2022-09-09T02:54:01.022Z,3.17
2022-09-09T02:56:31.887Z,3.33
2022-09-09T02:58:59.429Z,2.72
2022-09-09T03:01:27.115Z,3.05
2022-09-09T03:03:56.704Z,2.92
2022-09-09T03:06:24.158Z,3.38
2022-09-09T03:08:51.632Z,3.65
2022-09-09T03:11:19.098Z,3.20
2022-09-09T03:13:46.544Z,3.95
2022-09-09T03:16:14.096Z,3.30
2022-09-09T03:18:41.618Z,3.35
2022-09-09T03:21:09.102Z,3.33
2022-09-09T03:23:37.329Z,3.80
2022-09-09T03:26:04.979Z,3.67
2022-09-09T03:28:32.890Z,3.67
2022-09-09T03:31:01.615Z,3.17
2022-09-09T03:33:29.813Z,3.95
2022-09-09T03:36:00.629Z,3.47
2022-09-09T03:38:28.129Z,4.30
2022-09-09T03:40:57.219Z,3.45
2022-09-09T03:43:25.418Z,3.45
2022-09-09T03:45:53.556Z,3.65
2022-09-09T03:48:21.169Z,3.65
2022-09-09T03:50:49.599Z,3.13
2022-09-09T03:53:18.237Z,2.72
2022-09-09T03:55:47.330Z,3.97
2022-09-09T03:58:15.869Z,3.95
2022-09-09T04:00:45.051Z,2.95
2022-09-09T04:03:13.272Z,3.50
2022-09-09T04:05:43.794Z,3.35
2022-09-09T04:08:11.263Z,3.55
2022-09-09T04:10:38.946Z,3.03
2022-09-09T04:13:06.693Z,4.72
2022-09-09T04:15:34.727Z,3.72
2022-09-09T04:18:03.247Z,4.53
2022-09-09T04:20:31.849Z,3.85
2022-09-09T04:22:59.964Z,3.53
2022-09-09T04:25:30.459Z,3.42
2022-09-09T04:27:58.222Z,3.20
2022-09-09T04:30:26.754Z,4.13
2022-09-09T04:32:54.246Z,3.60
2022-09-09T04:35:21.887Z,4.25
2022-09-09T04:37:50.209Z,3.80
2022-09-09T04:40:18.082Z,4.63
2022-09-09T05:04:15.788Z,4.20
2022-09-09T05:15:12.845Z,4.15
2022-09-09T07:37:26.303Z,4.60
2022-09-09T07:39:54.635Z,3.75
2022-09-09T07:42:22.124Z,2.80
2022-09-09T07:44:51.544Z,3.80
2022-09-09T07:47:19.033Z,3.45
2022-09-09T07:49:47.908Z,3.70
2022-09-09T07:52:18.226Z,3.95
2022-09-09T07:54:47.849Z,2.97
2022-09-09T07:57:16.985Z,3.10
2022-09-09T07:59:44.451Z,4.25
2022-09-09T08:02:12.970Z,3.40
2022-09-09T08:04:42.015Z,4.00
2022-09-09T08:07:09.988Z,3.83
2022-09-09T08:09:37.507Z,4.18
2022-09-09T08:12:05.285Z,4.72
2022-09-09T08:14:32.712Z,4.72
2022-09-09T08:17:00.550Z,5.18
2022-09-09T08:19:30.918Z,4.55
2022-09-09T08:21:58.380Z,5.13
2022-09-09T08:24:25.853Z,5.10
2022-09-09T08:26:53.402Z,4.00
2022-09-09T08:29:21.240Z,4.57
2022-09-09T08:31:52.900Z,4.72
2022-09-09T08:34:21.600Z,4.72
2022-09-09T08:36:49.645Z,5.55
2022-09-09T08:39:19.593Z,5.38
2022-09-09T08:41:50.044Z,5.03
2022-09-09T08:44:35.929Z,4.60
2022-09-09T08:47:12.502Z,4.53
2022-09-09T08:50:00.957Z,4.53
2022-09-09T11:30:54.854Z,5.70
2022-09-09T14:38:23.468Z,2.88
2022-09-09T14:48:52.009Z,1.65
2022-09-09T14:51:21.405Z,1.40
2022-09-09T15:01:47.703Z,1.58
2022-09-09T15:04:22.091Z,1.55
2022-09-09T15:06:51.577Z,1.58
2022-09-09T15:09:19.581Z,2.63
2022-09-09T15:11:48.351Z,1.60
2022-09-09T15:14:15.717Z,2.05
2022-09-09T15:16:43.328Z,0.90
2022-09-09T15:19:10.806Z,0.88
2022-09-09T15:21:39.330Z,1.33
2022-09-09T15:24:09.788Z,1.52
2022-09-09T15:26:39.983Z,2.53
2022-09-09T15:29:07.758Z,1.17
2022-09-09T15:36:51.621Z,1.67
2022-09-09T15:39:19.769Z,1.63
2022-09-09T15:41:48.471Z,1.48
2022-09-09T15:44:17.252Z,1.85
2022-09-09T15:46:50.261Z,0.93
2022-09-09T15:49:28.861Z,1.42
2022-09-09T15:51:59.187Z,1.10
2022-09-09T15:54:27.436Z,1.40
2022-09-09T15:56:59.202Z,1.20
2022-09-09T15:59:27.220Z,1.08
2022-09-09T16:01:55.108Z,1.38
2022-09-09T16:04:27.011Z,1.30
2022-09-09T16:06:54.466Z,1.25
2022-09-09T16:09:22.457Z,1.85
2022-09-09T16:11:50.302Z,1.67
2022-09-09T16:14:20.515Z,1.10
2022-09-09T16:16:47.937Z,1.55
2022-09-09T16:19:15.780Z,1.15
2022-09-09T16:21:44.677Z,1.77
2022-09-09T16:24:13.570Z,1.30
2022-09-09T16:26:46.798Z,1.40
2022-09-09T16:29:14.842Z,1.65
2022-09-09T16:31:42.634Z,1.05
2022-09-09T16:34:11.157Z,1.25
2022-09-09T17:26:31.607Z,1.10
2022-09-09T17:29:00.014Z,0.98
2022-09-09T17:31:27.975Z,1.05
2022-09-09T17:33:55.656Z,1.30
2022-09-09T17:36:41.095Z,1.20
2022-09-09T17:39:08.667Z,1.05
2022-09-09T17:41:38.080Z,1.20
2022-09-09T18:27:10.417Z,1.20
2022-09-09T18:29:37.872Z,1.15
2022-09-09T18:32:05.380Z,0.68
2022-09-09T18:34:32.945Z,1.02
2022-09-09T18:37:00.671Z,1.08
2022-09-09T18:39:29.632Z,1.38
2022-09-09T18:44:38.472Z,0.95
2022-09-09T18:47:06.001Z,1.58
2022-09-09T19:21:53.301Z,1.00
2022-09-09T19:24:30.903Z,1.20
2022-09-09T19:45:59.208Z,0.70
2022-09-09T19:48:27.508Z,0.77
2022-09-09T19:50:55.196Z,1.30
2022-09-09T19:53:22.693Z,1.17
2022-09-09T19:55:54.016Z,1.20
2022-09-09T19:58:21.521Z,0.77
2022-09-09T20:00:49.167Z,0.75
2022-09-09T20:03:19.508Z,0.88
2022-09-09T20:05:49.922Z,0.93
2022-09-09T20:08:17.410Z,0.60
2022-09-09T20:10:55.066Z,0.60
2022-09-09T20:13:22.746Z,0.80
2022-09-09T20:16:01.395Z,0.88
2022-09-09T20:18:31.755Z,0.85
2022-09-09T20:21:01.172Z,1.00
2022-09-09T20:23:29.251Z,0.70
2022-09-09T20:25:57.460Z,0.68
2022-09-09T20:28:24.997Z,0.90
2022-09-09T20:30:52.844Z,1.00
2022-09-09T20:47:03.418Z,0.88
2022-09-09T20:49:31.020Z,1.45
2022-09-09T20:51:58.507Z,1.40
2022-09-09T20:54:27.562Z,1.00
2022-09-09T20:56:55.877Z,1.05
2022-09-09T20:59:25.085Z,0.80
2022-09-09T21:01:53.389Z,1.48
2022-09-09T21:04:21.783Z,1.05
2022-09-09T21:06:50.707Z,1.02
2022-09-09T21:09:18.688Z,1.00
2022-09-09T21:11:47.780Z,0.90
2022-09-09T21:14:15.834Z,1.83
2022-09-09T21:16:43.666Z,1.75
2022-09-09T21:19:11.143Z,1.15
2022-09-09T21:21:38.577Z,0.93
2022-09-09T21:24:06.295Z,0.85
2022-09-09T21:26:33.868Z,1.05
2022-09-09T21:29:01.347Z,1.45
2022-09-09T21:31:29.021Z,2.03
2022-09-09T21:33:57.295Z,1.58
2022-09-09T21:36:24.828Z,0.70
2022-09-09T21:38:52.325Z,1.42
2022-09-09T21:41:19.949Z,0.75
2022-09-09T21:43:51.992Z,1.05
2022-09-09T21:46:19.652Z,1.10
2022-09-09T21:48:47.193Z,0.80
2022-09-09T21:51:15.773Z,1.08
2022-09-09T21:53:43.954Z,1.00
2022-09-09T21:56:13.040Z,1.38
2022-09-09T21:58:41.822Z,1.00
2022-09-09T22:01:13.662Z,1.00
2022-09-09T22:03:43.137Z,1.23
2022-09-09T22:06:12.982Z,1.13
2022-09-09T22:08:40.958Z,1.33
2022-09-09T22:11:09.780Z,1.17
2022-09-09T22:13:38.930Z,1.20
2022-09-09T22:16:07.424Z,1.33
2022-09-09T22:18:35.262Z,1.27
2022-09-09T22:31:44.542Z,1.20
2022-09-09T22:48:12.576Z,0.80
2022-09-09T22:50:42.412Z,1.15
2022-09-09T22:53:11.785Z,1.08
2022-09-09T22:55:39.348Z,1.38
2022-09-09T22:58:07.376Z,1.60
2022-09-09T23:00:35.068Z,1.05
2022-09-09T23:03:02.540Z,1.38
2022-09-09T23:05:30.822Z,0.70
2022-09-09T23:07:58.978Z,0.98
2022-09-09T23:10:28.473Z,1.33
2022-09-09T23:23:38.205Z,1.20
2022-09-09T23:26:07.752Z,1.75
2022-09-09T23:28:36.549Z,0.98
2022-09-09T23:31:08.939Z,1.30
2022-09-09T23:36:05.624Z,0.82
2022-09-09T23:38:33.254Z,1.13
2022-09-09T23:41:03.826Z,1.02
2022-09-09T23:43:32.372Z,1.42
